Time;durP1;ratioP1;P1;durP2;ratioP2;P2;SDS_P1;SDS_P2;PMS_P1;PMS_P2;Temp;Humidity;BMP_temperature;BMP_pressure;BME280_temperature;BME280_humidity;BME280_pressure;Samples;Min_cycle;Max_cycle;Signal;HPM_P1;HPM_P2
2021/04/26 00:00:20;;;;;;;18.23;10.38;;;15.80;83.80;;;;;;4918413;29;20036;-81
2021/04/26 00:02:45;;;;;;;16.60;10.68;;;15.80;84.20;;;;;;4901162;29;20032;-81
2021/04/26 00:05:14;;;;;;;19.35;10.80;;;15.80;84.30;;;;;;4917965;29;20297;-81
2021/04/26 00:07:41;;;;;;;17.67;11.00;;;15.70;84.50;;;;;;4918137;29;20079;-81
2021/04/26 00:10:08;;;;;;;16.48;10.63;;;15.70;84.90;;;;;;4901096;29;20024;-81
2021/04/26 00:12:34;;;;;;;22.75;11.00;;;15.70;84.90;;;;;;4917746;29;20514;-81
2021/04/26 00:15:00;;;;;;;19.58;12.10;;;15.70;84.80;;;;;;4917743;29;20032;-81
2021/04/26 00:17:26;;;;;;;19.40;11.05;;;15.70;85.00;;;;;;4917927;29;20038;-81
2021/04/26 00:19:51;;;;;;;22.67;11.75;;;15.70;85.00;;;;;;4917654;29;20488;-80
2021/04/26 00:22:17;;;;;;;19.25;11.38;;;15.90;84.90;;;;;;4900575;29;20039;-81
2021/04/26 00:24:43;;;;;;;23.65;12.40;;;15.80;84.20;;;;;;4917848;29;20079;-81
2021/04/26 00:27:09;;;;;;;20.13;11.63;;;15.90;83.10;;;;;;4917434;29;20484;-80
2021/04/26 00:29:35;;;;;;;20.33;11.48;;;15.90;83.30;;;;;;4900632;29;20047;-81
2021/04/26 00:32:01;;;;;;;20.85;12.13;;;15.90;83.50;;;;;;4917641;29;20492;-81
2021/04/26 00:34:26;;;;;;;17.30;11.00;;;15.80;84.10;;;;;;4917367;29;20052;-80
2021/04/26 00:36:52;;;;;;;21.52;12.25;;;15.80;84.70;;;;;;4917578;29;20106;-81
2021/04/26 00:39:18;;;;;;;16.58;11.25;;;15.70;84.80;;;;;;4916459;29;20028;-81
2021/04/26 00:41:43;;;;;;;18.55;10.95;;;15.70;85.20;;;;;;4917127;29;20056;-81
2021/04/26 00:44:09;;;;;;;19.85;11.55;;;15.70;85.20;;;;;;4917365;29;20133;-81
2021/04/26 00:46:35;;;;;;;22.83;11.55;;;15.70;85.40;;;;;;4917420;29;20022;-81
2021/04/26 00:49:00;;;;;;;22.25;11.75;;;15.60;85.40;;;;;;4917093;29;20028;-81
2021/04/26 00:51:27;;;;;;;21.30;11.57;;;15.60;85.60;;;;;;4917250;29;20369;-81
2021/04/26 00:53:54;;;;;;;20.90;12.07;;;15.60;85.80;;;;;;4917365;29;20024;-81
2021/04/26 00:56:19;;;;;;;21.15;10.80;;;15.50;86.30;;;;;;4917040;29;20028;-81
2021/04/26 00:58:45;;;;;;;17.85;11.23;;;15.50;86.80;;;;;;4917219;29;20593;-80
2021/04/26 01:01:11;;;;;;;19.02;11.18;;;15.40;87.10;;;;;;4916834;29;20028;-81
2021/04/26 01:03:37;;;;;;;21.33;10.73;;;15.40;87.60;;;;;;4916839;29;20032;-81
2021/04/26 01:06:03;;;;;;;18.17;11.02;;;15.40;88.00;;;;;;4917071;29;20116;-81
2021/04/26 01:08:29;;;;;;;19.73;10.55;;;15.30;88.30;;;;;;4916982;29;20107;-81
2021/04/26 01:10:56;;;;;;;19.00;10.63;;;15.30;88.30;;;;;;4916804;29;20103;-81
2021/04/26 01:13:33;;;;;;;21.50;11.48;;;15.30;88.60;;;;;;4916971;29;20036;-81
2021/04/26 01:16:05;;;;;;;17.27;11.82;;;15.30;89.00;;;;;;4916699;29;20039;-81
2021/04/26 01:18:38;;;;;;;;;;;15.30;89.10;;;;;;4916728;29;20388;-81
2021/04/26 01:21:09;;;;;;;22.63;10.43;;;15.30;89.20;;;;;;4935080;29;19914;-81
2021/04/26 01:24:00;;;;;;;19.08;10.55;;;15.30;89.30;;;;;;4935608;29;20091;-81
2021/04/26 01:26:29;;;;;;;20.05;11.63;;;15.20;89.30;;;;;;4935620;29;20016;-82
2021/04/26 01:29:08;;;;;;;19.60;10.93;;;15.20;89.30;;;;;;4918421;29;20495;-81
2021/04/26 01:32:05;;;;;;;19.67;11.48;;;15.20;89.30;;;;;;4935186;29;20053;-80
2021/04/26 01:34:31;;;;;;;18.45;11.20;;;15.20;89.70;;;;;;4918187;29;20488;-80
2021/04/26 01:36:58;;;;;;;19.65;11.57;;;15.20;89.60;;;;;;4935414;29;20027;-80
2021/04/26 01:39:24;;;;;;;17.85;10.75;;;15.30;89.80;;;;;;4935273;29;20035;-80
2021/04/26 01:41:50;;;;;;;18.70;11.10;;;15.30;89.90;;;;;;4935110;29;20039;-80
2021/04/26 01:44:19;;;;;;;17.85;11.15;;;15.30;90.00;;;;;;4917969;29;20435;-81
2021/04/26 01:46:45;;;;;;;17.98;10.88;;;15.30;90.00;;;;;;4935132;29;20039;-81
2021/04/26 01:49:12;;;;;;;21.02;11.48;;;15.20;90.10;;;;;;4929831;29;20511;-81
2021/04/26 01:51:40;;;;;;;21.50;11.35;;;15.20;90.10;;;;;;4899245;29;20036;-80
2021/04/26 01:54:06;;;;;;;19.15;11.50;;;15.30;90.10;;;;;;4916210;29;20028;-80
2021/04/26 01:56:35;;;;;;;19.35;10.90;;;15.30;90.00;;;;;;4915992;29;20181;-80
2021/04/26 01:59:03;;;;;;;21.17;11.68;;;15.40;90.10;;;;;;4915908;29;20025;-80
2021/04/26 02:01:29;;;;;;;16.45;10.50;;;15.40;89.70;;;;;;4915991;29;20024;-80
2021/04/26 02:04:04;;;;;;;19.10;10.93;;;15.50;89.50;;;;;;4898951;29;20115;-80
2021/04/26 02:06:31;;;;;;;19.40;11.38;;;15.40;89.80;;;;;;4915841;29;20029;-80
2021/04/26 02:08:59;;;;;;;18.55;11.20;;;15.40;90.00;;;;;;4916036;29;20401;-81
2021/04/26 02:11:25;;;;;;;17.70;10.63;;;15.40;89.90;;;;;;4915453;29;20024;-80
2021/04/26 02:13:53;;;;;;;18.95;10.18;;;15.40;90.00;;;;;;4915717;29;20028;-81
2021/04/26 02:16:19;;;;;;;18.63;10.73;;;15.40;89.90;;;;;;4898802;29;20020;-81
2021/04/26 02:18:45;;;;;;;18.00;11.50;;;15.40;89.80;;;;;;4898695;29;20059;-80
2021/04/26 02:21:11;;;;;;;19.65;11.18;;;15.40;90.00;;;;;;4915428;29;20032;-81
2021/04/26 02:23:37;;;;;;;17.40;10.85;;;15.40;90.00;;;;;;4915684;29;20036;-80
2021/04/26 02:26:03;;;;;;;22.60;11.20;;;15.50;90.00;;;;;;4898417;29;20028;-80
2021/04/26 02:28:30;;;;;;;21.02;11.55;;;15.50;90.00;;;;;;4915451;29;20032;-81
2021/04/26 02:30:58;;;;;;;18.25;10.70;;;15.50;90.10;;;;;;4915562;29;20028;-79
2021/04/26 02:33:32;;;;;;;20.50;11.05;;;15.50;90.20;;;;;;4915595;29;20036;-80
2021/04/26 02:36:07;;;;;;;15.25;10.35;;;15.50;90.30;;;;;;4898287;29;20516;-80
2021/04/26 02:38:36;;;;;;;19.35;11.68;;;15.50;90.40;;;;;;4898201;29;20110;-79
2021/04/26 02:41:11;;;;;;;18.35;12.00;;;15.50;90.30;;;;;;4915277;29;20503;-80
2021/04/26 02:43:46;;;;;;;20.08;11.15;;;15.50;90.20;;;;;;4898209;29;20441;-80
2021/04/26 02:46:14;;;;;;;18.48;11.18;;;15.50;90.40;;;;;;4915185;29;20072;-80
2021/04/26 02:48:43;;;;;;;16.75;10.07;;;15.50;90.40;;;;;;4915104;29;20460;-80
2021/04/26 02:51:09;;;;;;;16.23;10.07;;;15.50;90.50;;;;;;4915122;29;20035;-81
2021/04/26 02:53:36;;;;;;;15.55;9.98;;;15.50;90.60;;;;;;4915324;29;20059;-81
2021/04/26 02:56:08;;;;;;;19.02;10.25;;;15.50;90.50;;;;;;4915159;29;20060;-80
2021/04/26 02:58:36;;;;;;;16.83;10.27;;;15.50;90.80;;;;;;4915388;29;20070;-80
2021/04/26 03:01:05;;;;;;;18.10;11.63;;;15.50;90.80;;;;;;4915698;29;20089;-80
2021/04/26 03:03:32;;;;;;;19.40;11.85;;;15.50;90.90;;;;;;4918889;29;20035;-79
2021/04/26 03:05:59;;;;;;;16.63;10.30;;;15.50;91.60;;;;;;4919049;29;20029;-80
2021/04/26 03:08:26;;;;;;;17.73;10.48;;;15.50;91.50;;;;;;4919188;29;20012;-81
2021/04/26 03:10:52;;;;;;;20.95;10.95;;;15.40;91.50;;;;;;4919194;29;20028;-81
2021/04/26 03:13:18;;;;;;;17.23;9.65;;;15.40;91.80;;;;;;4918859;29;20024;-80
2021/04/26 03:15:44;;;;;;;16.10;9.85;;;15.40;91.90;;;;;;4919033;29;20575;-79
2021/04/26 03:18:14;;;;;;;15.85;10.48;;;15.40;92.10;;;;;;4901537;29;20115;-81
2021/04/26 03:20:41;;;;;;;12.30;9.30;;;15.40;92.00;;;;;;4918706;29;20032;-80
2021/04/26 03:23:08;;;;;;;14.30;10.07;;;15.40;92.00;;;;;;4918613;29;20282;-80
2021/04/26 03:25:35;;;;;;;14.68;10.20;;;15.40;92.40;;;;;;4918997;29;20024;-80
2021/04/26 03:28:01;;;;;;;17.70;9.77;;;15.30;92.50;;;;;;4918714;29;20032;-80
2021/04/26 03:30:27;;;;;;;19.75;10.20;;;15.30;92.70;;;;;;4901609;29;20457;-80
2021/04/26 03:32:55;;;;;;;20.77;10.77;;;15.30;92.70;;;;;;4901548;29;20365;-80
2021/04/26 03:35:22;;;;;;;20.08;11.25;;;15.20;92.70;;;;;;4918651;29;20059;-81
2021/04/26 03:37:53;;;;;;;13.85;9.82;;;15.20;92.90;;;;;;4918533;29;20115;-80
2021/04/26 03:40:21;;;;;;;16.23;10.15;;;15.20;93.00;;;;;;4901612;29;20060;-81
2021/04/26 03:42:51;;;;;;;15.82;9.23;;;15.20;93.10;;;;;;4918219;29;20043;-80
2021/04/26 03:45:17;;;;;;;16.42;10.35;;;15.20;93.20;;;;;;4901520;29;20039;-81
2021/04/26 03:47:44;;;;;;;16.65;10.70;;;15.20;93.20;;;;;;4918555;29;20032;-81
2021/04/26 03:50:12;;;;;;;18.00;10.35;;;15.10;93.50;;;;;;4918438;29;20024;-81
2021/04/26 03:52:37;;;;;;;18.20;10.15;;;15.10;93.50;;;;;;4900956;29;20032;-80
2021/04/26 03:55:05;;;;;;;15.90;9.95;;;15.10;93.60;;;;;;4918205;29;20036;-80
2021/04/26 03:57:31;;;;;;;18.45;10.65;;;15.10;94.20;;;;;;4918262;29;20042;-80
2021/04/26 03:59:57;;;;;;;16.83;10.50;;;15.00;93.90;;;;;;4918141;29;20507;-81
2021/04/26 04:02:27;;;;;;;19.05;10.20;;;15.10;93.70;;;;;;4900850;29;20491;-80
2021/04/26 04:04:52;;;;;;;16.60;10.32;;;15.10;93.50;;;;;;4918117;29;20107;-81
2021/04/26 04:07:18;;;;;;;16.08;10.15;;;15.10;93.60;;;;;;4918076;29;20576;-81
2021/04/26 04:09:44;;;;;;;20.42;11.05;;;15.10;93.60;;;;;;4901247;29;20377;-72
2021/04/26 04:12:10;;;;;;;19.75;10.68;;;15.10;93.60;;;;;;4918720;29;20031;-80
2021/04/26 04:14:35;;;;;;;18.85;11.38;;;15.10;93.60;;;;;;4917792;29;20038;-81
2021/04/26 04:17:03;;;;;;;17.45;10.77;;;15.20;93.60;;;;;;4901387;29;20115;-81
2021/04/26 04:19:29;;;;;;;19.00;11.00;;;15.20;93.50;;;;;;4918718;29;20033;-81
2021/04/26 04:21:55;;;;;;;20.45;11.52;;;15.20;93.60;;;;;;4918726;29;20047;-81
2021/04/26 04:24:21;;;;;;;16.60;10.90;;;15.20;93.60;;;;;;4917143;29;20016;-79
2021/04/26 04:26:46;;;;;;;21.67;11.45;;;15.20;93.60;;;;;;4917129;29;20503;-80
2021/04/26 04:29:12;;;;;;;17.25;10.73;;;15.20;93.70;;;;;;4917429;29;20380;-80
2021/04/26 04:31:38;;;;;;;20.52;10.43;;;15.20;93.70;;;;;;4914955;29;20079;-80
2021/04/26 04:34:04;;;;;;;15.90;10.55;;;15.20;94.00;;;;;;4917099;29;20492;-80
2021/04/26 04:36:31;;;;;;;19.90;10.27;;;15.20;94.10;;;;;;4905756;29;20025;-81
2021/04/26 04:38:58;;;;;;;22.25;11.13;;;15.20;94.00;;;;;;4908080;29;20024;-81
2021/04/26 04:41:23;;;;;;;17.33;10.30;;;15.20;93.90;;;;;;4907482;29;20075;-80
2021/04/26 04:43:49;;;;;;;16.45;10.93;;;15.30;94.00;;;;;;4906005;29;20071;-81
2021/04/26 04:46:17;;;;;;;21.10;11.80;;;15.30;93.90;;;;;;4908181;29;20104;-81
2021/04/26 04:48:43;;;;;;;19.65;11.15;;;15.30;93.90;;;;;;4888416;29;20071;-81
2021/04/26 04:51:09;;;;;;;19.23;11.52;;;15.30;93.90;;;;;;4900946;29;20024;-81
2021/04/26 04:53:35;;;;;;;19.67;11.73;;;15.30;94.00;;;;;;4900938;29;20377;-80
2021/04/26 04:56:01;;;;;;;23.10;11.52;;;15.30;94.10;;;;;;4917923;29;20493;-80
2021/04/26 04:58:26;;;;;;;22.98;11.20;;;15.30;94.70;;;;;;4918395;29;20039;-80
2021/04/26 05:00:52;;;;;;;19.23;12.10;;;15.30;94.70;;;;;;4901108;29;20114;-80
2021/04/26 05:03:18;;;;;;;21.52;10.25;;;15.30;94.50;;;;;;4892892;29;20485;-80
2021/04/26 05:05:43;;;;;;;17.40;10.15;;;15.30;94.60;;;;;;4893509;29;20024;-80
2021/04/26 05:08:09;;;;;;;15.80;10.40;;;15.30;94.80;;;;;;4887807;29;20374;-80
2021/04/26 05:10:35;;;;;;;19.75;10.57;;;15.30;94.80;;;;;;4899367;29;20025;-80
2021/04/26 05:13:01;;;;;;;18.75;10.80;;;15.40;95.40;;;;;;4899309;29;20084;-80
2021/04/26 05:15:28;;;;;;;18.20;11.52;;;15.30;95.30;;;;;;4900047;29;20563;-80
2021/04/26 05:17:54;;;;;;;21.52;11.18;;;15.30;95.00;;;;;;4935331;29;20075;-80
2021/04/26 05:20:21;;;;;;;17.67;10.15;;;15.30;95.00;;;;;;4922769;29;20064;-81
2021/04/26 05:22:46;;;;;;;19.00;10.63;;;15.30;95.20;;;;;;4916036;29;20056;-81
2021/04/26 05:25:13;;;;;;;18.58;11.13;;;15.30;94.90;;;;;;4916203;29;20512;-81
2021/04/26 05:27:39;;;;;;;14.45;9.80;;;15.30;95.40;;;;;;4916162;29;20027;-80
2021/04/26 05:30:06;;;;;;;15.85;10.32;;;15.40;95.50;;;;;;4916520;29;20023;-81
2021/04/26 05:32:32;;;;;;;19.50;11.77;;;15.40;95.00;;;;;;4899753;29;20119;-81
2021/04/26 05:34:58;;;;;;;16.60;10.13;;;15.40;96.60;;;;;;4916419;29;20096;-81
2021/04/26 05:37:24;;;;;;;21.95;10.48;;;15.40;95.80;;;;;;4916550;29;20091;-80
2021/04/26 05:39:50;;;;;;;20.13;11.20;;;15.40;95.30;;;;;;4916463;29;20032;-83
2021/04/26 05:42:15;;;;;;;16.10;10.55;;;15.50;95.80;;;;;;4899237;29;20043;-81
2021/04/26 05:44:42;;;;;;;19.23;9.98;;;15.50;95.50;;;;;;4916398;29;20020;-81
2021/04/26 05:47:07;;;;;;;16.42;9.90;;;15.60;95.30;;;;;;4899422;29;20040;-82
2021/04/26 05:49:33;;;;;;;16.92;9.50;;;15.70;94.30;;;;;;4916057;29;20020;-80
2021/04/26 05:51:59;;;;;;;17.80;9.98;;;15.80;91.70;;;;;;4916287;29;20083;-80
2021/04/26 05:54:25;;;;;;;18.02;9.82;;;15.90;91.90;;;;;;4899336;29;20055;-81
2021/04/26 05:56:51;;;;;;;22.52;9.65;;;15.90;91.40;;;;;;4899570;29;20032;-80
2021/04/26 05:59:16;;;;;;;13.60;8.95;;;16.00;90.20;;;;;;4899605;29;20024;-80
2021/04/26 06:01:42;;;;;;;17.00;9.43;;;16.10;88.50;;;;;;4917243;29;20028;-81
2021/04/26 06:04:08;;;;;;;15.63;8.52;;;16.10;87.70;;;;;;4917279;29;20024;-80
2021/04/26 06:06:34;;;;;;;11.35;8.50;;;16.20;88.10;;;;;;4900208;29;20035;-80
2021/04/26 06:08:59;;;;;;;15.90;9.73;;;16.20;88.40;;;;;;4917127;29;20028;-80
2021/04/26 06:11:25;;;;;;;14.68;8.60;;;16.20;87.30;;;;;;4899083;29;20020;-81
2021/04/26 06:13:51;;;;;;;12.50;8.65;;;16.30;85.90;;;;;;4916097;29;20032;-81
2021/04/26 06:16:17;;;;;;;18.38;9.77;;;16.30;86.00;;;;;;4916009;29;20028;-81
2021/04/26 06:18:43;;;;;;;20.98;7.57;;;16.30;84.70;;;;;;4925366;29;20075;-81
2021/04/26 06:21:08;;;;;;;16.42;8.15;;;16.40;85.00;;;;;;4924675;29;20027;-80
2021/04/26 06:23:34;;;;;;;12.57;8.45;;;16.40;87.00;;;;;;4926767;29;20031;-80
2021/04/26 06:26:00;;;;;;;17.02;8.82;;;16.40;84.30;;;;;;4935920;29;20027;-81
2021/04/26 06:28:26;;;;;;;17.48;8.05;;;16.50;84.70;;;;;;4935832;29;20023;-80
2021/04/26 06:30:52;;;;;;;12.82;7.90;;;16.50;84.70;;;;;;4935798;29;20075;-81
2021/04/26 06:33:18;;;;;;;11.32;8.02;;;16.60;82.50;;;;;;4935525;29;20027;-80
2021/04/26 06:35:44;;;;;;;18.10;7.82;;;16.60;82.70;;;;;;4920368;29;20063;-81
2021/04/26 06:38:10;;;;;;;13.18;7.88;;;16.60;83.50;;;;;;4916643;29;20547;-80
2021/04/26 06:40:36;;;;;;;11.18;7.78;;;16.70;83.10;;;;;;4916784;29;20024;-81
2021/04/26 06:43:02;;;;;;;12.48;8.27;;;16.80;84.50;;;;;;4916853;29;20087;-81
2021/04/26 06:45:29;;;;;;;17.40;7.63;;;16.70;83.20;;;;;;4916791;29;20491;-81
2021/04/26 06:47:55;;;;;;;12.82;7.35;;;16.80;83.70;;;;;;4914036;29;21730;-81
2021/04/26 06:50:21;;;;;;;11.65;7.05;;;16.80;82.50;;;;;;4896305;29;20137;-80
2021/04/26 06:52:48;;;;;;;14.52;8.85;;;16.90;82.20;;;;;;4883080;29;20064;-81
2021/04/26 06:55:15;;;;;;;12.10;7.63;;;16.90;82.50;;;;;;4897850;29;20523;-80
2021/04/26 06:57:41;;;;;;;12.55;7.53;;;17.00;82.10;;;;;;4897101;29;20047;-80
2021/04/26 07:00:08;;;;;;;10.63;6.90;;;17.00;82.00;;;;;;4880283;29;20040;-80
2021/04/26 07:02:34;;;;;;;12.07;7.07;;;17.00;81.60;;;;;;4893118;29;20183;-73
2021/04/26 07:05:00;;;;;;;13.50;7.18;;;17.10;83.40;;;;;;4895814;29;20107;-74
2021/04/26 07:07:26;;;;;;;12.93;7.38;;;17.10;83.10;;;;;;4904075;29;20115;-80
2021/04/26 07:09:52;;;;;;;11.32;7.13;;;17.20;81.10;;;;;;4894612;29;20104;-80
2021/04/26 07:12:18;;;;;;;11.82;6.50;;;17.20;81.60;;;;;;4894931;29;20029;-80
2021/04/26 07:14:44;;;;;;;10.52;6.47;;;17.20;80.30;;;;;;4892899;29;20029;-81
2021/04/26 07:17:10;;;;;;;8.95;6.68;;;17.30;80.30;;;;;;4892938;29;20041;-73
2021/04/26 07:19:42;;;;;;;12.27;6.72;;;17.30;81.20;;;;;;4897713;29;20039;-74
2021/04/26 07:22:08;;;;;;;;;;;17.40;81.40;;;;;;4898630;29;20107;-73
2021/04/26 07:24:34;;;;;;;7.68;6.00;;;17.40;81.00;;;;;;4895890;29;19907;-73
2021/04/26 07:27:00;;;;;;;8.27;5.53;;;17.40;81.30;;;;;;4896272;29;20036;-73
2021/04/26 07:29:26;;;;;;;9.07;6.43;;;17.50;79.80;;;;;;4903601;29;20111;-73
2021/04/26 07:31:52;;;;;;;10.43;6.18;;;17.50;81.30;;;;;;4905685;29;20044;-73
2021/04/26 07:34:18;;;;;;;14.57;6.60;;;17.50;80.50;;;;;;4889285;29;20492;-72
2021/04/26 07:36:43;;;;;;;8.73;6.07;;;17.50;78.70;;;;;;4902626;29;20056;-73
2021/04/26 07:39:09;;;;;;;14.82;8.85;;;17.50;78.70;;;;;;4903230;29;20392;-73
2021/04/26 07:41:35;;;;;;;9.18;6.68;;;17.50;78.00;;;;;;4897472;29;20104;-80
2021/04/26 07:44:01;;;;;;;8.88;5.38;;;17.50;78.30;;;;;;4898879;29;20440;-80
2021/04/26 07:46:27;;;;;;;6.75;5.10;;;17.60;77.00;;;;;;4898935;29;20024;-80
2021/04/26 07:48:53;;;;;;;6.90;5.53;;;17.60;77.80;;;;;;4918936;29;20396;-80
2021/04/26 07:51:19;;;;;;;6.95;5.13;;;17.60;78.40;;;;;;4902278;29;20028;-80
2021/04/26 07:53:45;;;;;;;7.30;5.55;;;17.70;77.10;;;;;;4902049;29;20365;-79
2021/04/26 07:56:10;;;;;;;17.80;6.80;;;17.70;75.70;;;;;;4919268;29;20032;-81
2021/04/26 07:58:38;;;;;;;6.07;5.22;;;17.70;76.20;;;;;;4919431;29;20115;-80
2021/04/26 08:01:03;;;;;;;5.60;4.85;;;17.80;77.20;;;;;;4920088;29;20397;-81
2021/04/26 08:03:29;;;;;;;8.07;5.00;;;17.80;77.20;;;;;;4906462;29;20028;-81
2021/04/26 08:05:55;;;;;;;8.40;5.55;;;17.80;75.90;;;;;;4922452;29;20103;-81
2021/04/26 08:08:22;;;;;;;7.55;5.03;;;17.90;75.00;;;;;;4919021;29;20055;-79
2021/04/26 08:10:48;;;;;;;7.05;5.40;;;17.80;74.30;;;;;;4918779;29;20020;-81
2021/04/26 08:13:14;;;;;;;7.93;5.05;;;17.90;75.40;;;;;;4918836;29;20039;-80
2021/04/26 08:15:40;;;;;;;5.65;4.47;;;17.90;74.50;;;;;;4925893;29;20059;-81
2021/04/26 08:18:09;;;;;;;9.68;4.53;;;17.90;75.40;;;;;;4918140;29;20073;-80
2021/04/26 08:20:37;;;;;;;6.78;4.75;;;17.80;72.30;;;;;;4918868;29;20384;-80
2021/04/26 08:23:04;;;;;;;6.00;5.00;;;17.90;74.50;;;;;;4918664;29;20524;-81
2021/04/26 08:25:30;;;;;;;7.13;5.28;;;17.90;75.70;;;;;;4918847;29;20029;-80
2021/04/26 08:28:00;;;;;;;7.65;5.18;;;17.90;74.80;;;;;;4901348;29;20031;-80
2021/04/26 08:30:26;;;;;;;5.50;4.30;;;18.00;76.30;;;;;;4918402;29;20024;-81
2021/04/26 08:32:55;;;;;;;7.25;5.00;;;18.00;75.70;;;;;;4918542;29;20100;-80
2021/04/26 08:35:20;;;;;;;7.95;5.85;;;18.10;74.80;;;;;;4923207;29;20064;-80
2021/04/26 08:37:46;;;;;;;11.02;5.68;;;18.00;73.60;;;;;;4920548;29;20412;-75
2021/04/26 08:40:12;;;;;;;9.10;5.13;;;18.00;73.90;;;;;;4925225;29;20029;-73
2021/04/26 08:42:38;;;;;;;5.43;4.55;;;18.10;73.40;;;;;;4909526;29;20035;-73
2021/04/26 08:45:06;;;;;;;6.68;4.70;;;18.10;74.60;;;;;;4928922;29;20384;-74
2021/04/26 08:47:31;;;;;;;9.38;4.82;;;18.10;73.60;;;;;;4924440;29;20075;-73
2021/04/26 08:49:58;;;;;;;4.93;4.03;;;18.20;73.10;;;;;;4907321;29;20032;-75
2021/04/26 08:52:25;;;;;;;8.25;4.63;;;18.20;73.80;;;;;;4925453;29;20495;-73
2021/04/26 08:54:51;;;;;;;5.60;5.07;;;18.20;72.70;;;;;;4920223;29;20020;-73
2021/04/26 08:57:18;;;;;;;6.82;4.93;;;18.20;72.80;;;;;;4910875;29;20507;-73
2021/04/26 08:59:45;;;;;;;7.97;4.72;;;18.10;72.00;;;;;;4925627;29;20390;-73
2021/04/26 09:02:17;;;;;;;7.05;4.90;;;18.00;71.10;;;;;;4925342;29;20106;-73
2021/04/26 09:05:00;;;;;;;4.78;4.35;;;17.90;71.50;;;;;;4911526;29;20069;-73
2021/04/26 09:07:26;;;;;;;7.32;4.25;;;18.00;71.70;;;;;;4919557;29;20567;-73
2021/04/26 09:09:53;;;;;;;8.93;4.35;;;18.00;72.00;;;;;;4927363;29;20103;-81
2021/04/26 09:12:28;;;;;;;8.73;4.72;;;18.00;71.60;;;;;;4936994;29;20559;-83
2021/04/26 09:14:56;;;;;;;7.53;5.15;;;18.00;70.70;;;;;;4936760;29;20023;-82
2021/04/26 09:17:25;;;;;;;4.85;4.40;;;17.90;70.60;;;;;;4917752;29;20040;-81
2021/04/26 09:19:55;;;;;;;6.18;4.75;;;17.80;70.70;;;;;;4917880;29;20035;-80
2021/04/26 09:22:44;;;;;;;7.15;4.70;;;17.80;70.50;;;;;;4918135;29;20032;-82
2021/04/26 09:25:24;;;;;;;11.15;4.78;;;17.60;70.40;;;;;;4918080;29;20024;-81
2021/04/26 09:27:52;;;;;;;7.95;4.22;;;17.60;71.20;;;;;;4918044;29;20107;-82
2021/04/26 09:30:34;;;;;;;4.95;4.10;;;17.50;69.50;;;;;;4917887;29;20036;-83
2021/04/26 09:33:42;;;;;;;4.97;4.45;;;17.40;71.20;;;;;;4917583;29;20051;-78
2021/04/26 09:36:18;;;;;;;7.70;4.72;;;17.30;72.80;;;;;;4908210;29;20048;-79
2021/04/26 09:38:52;;;;;;;5.13;4.63;;;17.20;71.50;;;;;;4917547;29;20056;-78
2021/04/26 09:41:18;;;;;;;6.22;5.25;;;17.20;73.10;;;;;;4900760;29;20455;-80
2021/04/26 09:44:08;;;;;;;10.18;4.97;;;17.10;74.50;;;;;;4900692;29;20128;-78
2021/04/26 09:46:45;;;;;;;7.90;5.40;;;17.10;75.10;;;;;;4900674;29;20036;-79
2021/04/26 09:49:15;;;;;;;6.75;5.22;;;17.10;76.30;;;;;;4917562;29;20059;-79
2021/04/26 09:51:42;;;;;;;8.82;5.40;;;17.10;78.30;;;;;;4917453;29;20024;-79
2021/04/26 09:54:09;;;;;;;9.68;5.20;;;17.10;79.80;;;;;;4917484;29;20028;-79
2021/04/26 09:56:40;;;;;;;6.57;5.35;;;17.00;80.50;;;;;;4917640;29;20567;-79
2021/04/26 09:59:08;;;;;;;8.25;6.03;;;16.90;79.80;;;;;;4900426;29;20028;-79
2021/04/26 10:01:35;;;;;;;11.18;5.95;;;16.90;81.70;;;;;;4917230;29;20024;-79
2021/04/26 10:04:03;;;;;;;7.07;4.90;;;16.90;81.90;;;;;;4900392;29;20028;-79
2021/04/26 10:06:28;;;;;;;7.38;5.90;;;16.90;82.40;;;;;;4900007;29;20514;-79
2021/04/26 10:09:00;;;;;;;8.73;5.47;;;17.00;84.40;;;;;;4917067;29;20051;-79
2021/04/26 10:11:28;;;;;;;9.40;5.73;;;16.90;84.50;;;;;;4917328;29;20024;-79
2021/04/26 10:14:11;;;;;;;7.95;5.38;;;16.90;84.00;;;;;;4900134;29;20444;-79
2021/04/26 10:16:57;;;;;;;7.32;5.53;;;16.90;79.30;;;;;;4916970;29;20047;-79
2021/04/26 10:19:36;;;;;;;6.80;5.40;;;16.90;80.80;;;;;;4917179;29;20036;-79
2021/04/26 10:22:04;;;;;;;7.70;4.53;;;17.00;81.00;;;;;;4916565;29;20024;-76
2021/04/26 10:24:31;;;;;;;12.18;5.68;;;17.00;83.90;;;;;;4916542;29;20441;-79
2021/04/26 10:27:00;;;;;;;6.82;4.95;;;17.00;83.10;;;;;;4916122;29;20413;-76
2021/04/26 10:29:26;;;;;;;7.00;5.25;;;17.00;81.20;;;;;;4899198;29;20032;-78
2021/04/26 10:32:01;;;;;;;7.55;5.47;;;17.00;83.50;;;;;;4916209;29;20032;-78
2021/04/26 10:34:27;;;;;;;10.60;5.57;;;17.00;80.90;;;;;;4899251;29;20028;-79
2021/04/26 10:36:54;;;;;;;8.98;5.25;;;17.00;81.90;;;;;;4916284;29;20034;-78
2021/04/26 10:39:22;;;;;;;9.23;5.80;;;17.00;83.40;;;;;;4899385;29;20020;-78
2021/04/26 10:41:53;;;;;;;9.65;5.32;;;17.00;82.80;;;;;;4916397;29;20084;-78
2021/04/26 10:44:40;;;;;;;8.38;6.20;;;17.00;84.00;;;;;;4899698;29;20692;-78
2021/04/26 10:47:30;;;;;;;13.68;5.85;;;17.00;83.70;;;;;;4899809;29;20032;-78
2021/04/26 10:50:02;;;;;;;10.77;5.78;;;17.00;85.00;;;;;;4899697;29;20024;-78
2021/04/26 10:52:28;;;;;;;7.78;5.45;;;17.00;83.00;;;;;;4916702;29;20056;-78
2021/04/26 10:54:54;;;;;;;14.18;6.32;;;17.00;82.70;;;;;;4916908;29;20032;-78
2021/04/26 10:57:32;;;;;;;6.45;5.40;;;17.00;82.90;;;;;;4899580;29;20032;-78
2021/04/26 11:00:23;;;;;;;12.32;6.55;;;16.90;82.00;;;;;;4916602;29;20493;-78
2021/04/26 11:02:57;;;;;;;6.95;5.70;;;16.80;82.70;;;;;;4899470;29;20051;-78
2021/04/26 11:05:32;;;;;;;11.18;6.03;;;16.80;83.00;;;;;;4899725;29;20036;-74
2021/04/26 11:08:06;;;;;;;8.65;5.63;;;16.80;82.50;;;;;;4916890;29;20353;-74
2021/04/26 11:10:34;;;;;;;7.15;5.78;;;16.70;83.60;;;;;;4916744;29;20016;-73
2021/04/26 11:13:21;;;;;;;13.35;5.85;;;16.60;82.40;;;;;;4917048;29;20120;-74
2021/04/26 11:16:07;;;;;;;9.65;6.28;;;16.60;80.80;;;;;;4917003;29;20032;-74
2021/04/26 11:18:34;;;;;;;9.43;5.68;;;16.50;80.80;;;;;;4899443;29;20388;-73
2021/04/26 11:21:01;;;;;;;8.25;5.90;;;16.40;80.60;;;;;;4916159;29;20049;-75
2021/04/26 11:23:43;;;;;;;6.82;5.75;;;16.40;83.60;;;;;;4919517;29;20523;-75
2021/04/26 11:26:19;;;;;;;8.82;6.28;;;16.30;84.40;;;;;;4900823;29;20028;-74
2021/04/26 11:29:08;;;;;;;10.02;6.70;;;16.30;85.80;;;;;;4900873;29;20021;-75
2021/04/26 11:31:40;;;;;;;11.82;7.00;;;16.30;86.70;;;;;;4900688;29;20024;-74
2021/04/26 11:34:19;;;;;;;;;;;16.30;85.70;;;;;;4899799;29;20104;-75
2021/04/26 11:37:03;;;;;;;9.95;5.93;;;16.40;86.50;;;;;;4900654;29;19919;-75
2021/04/26 11:39:30;;;;;;;12.13;6.72;;;16.40;85.00;;;;;;4900736;29;20384;-75
2021/04/26 11:41:55;;;;;;;11.38;6.32;;;16.50;86.00;;;;;;4900444;29;20496;-75
2021/04/26 11:44:29;;;;;;;7.03;6.22;;;16.50;83.30;;;;;;4900141;29;20058;-74
2021/04/26 11:47:06;;;;;;;9.20;5.88;;;16.40;83.50;;;;;;4899755;29;20025;-74
2021/04/26 11:49:44;;;;;;;10.57;6.30;;;16.40;83.00;;;;;;4891088;29;20024;-75
2021/04/26 11:52:16;;;;;;;7.15;6.13;;;16.40;85.10;;;;;;4901656;29;20559;-73
2021/04/26 11:54:47;;;;;;;8.23;6.53;;;16.50;83.60;;;;;;4918705;29;20058;-75
2021/04/26 11:57:19;;;;;;;7.72;6.07;;;16.50;85.20;;;;;;4917705;29;20544;-74
2021/04/26 11:59:57;;;;;;;10.98;6.45;;;16.50;84.60;;;;;;4901386;29;20032;-75
2021/04/26 12:02:30;;;;;;;7.88;6.07;;;16.50;85.30;;;;;;4899704;29;20040;-74
2021/04/26 12:05:08;;;;;;;8.15;6.72;;;16.60;87.10;;;;;;4921176;29;20024;-76
2021/04/26 12:07:35;;;;;;;10.43;6.47;;;16.60;86.00;;;;;;4901132;29;20032;-73
2021/04/26 12:10:42;;;;;;;11.07;6.88;;;16.70;85.70;;;;;;4919703;29;20051;-73
2021/04/26 12:13:09;;;;;;;13.93;6.38;;;16.80;85.20;;;;;;4912361;29;20036;-73
2021/04/26 12:15:37;;;;;;;9.98;6.13;;;16.80;84.80;;;;;;4926855;29;20031;-73
2021/04/26 12:18:05;;;;;;;10.30;6.35;;;16.80;84.30;;;;;;4919298;29;20055;-73
2021/04/26 12:20:40;;;;;;;7.97;6.72;;;16.80;85.80;;;;;;4932891;29;20119;-76
2021/04/26 12:23:15;;;;;;;12.65;6.80;;;16.80;85.60;;;;;;4919361;29;20048;-76
2021/04/26 12:25:45;;;;;;;8.73;6.60;;;16.80;86.00;;;;;;4909063;29;20020;-77
2021/04/26 12:28:15;;;;;;;9.32;6.43;;;16.80;87.20;;;;;;4937867;29;20365;-76
2021/04/26 12:30:44;;;;;;;7.85;6.18;;;16.70;86.10;;;;;;4937725;29;20083;-76
2021/04/26 12:33:30;;;;;;;8.52;7.15;;;16.70;87.10;;;;;;4937240;29;20501;-77
2021/04/26 12:35:56;;;;;;;11.20;6.53;;;16.80;88.80;;;;;;4919633;29;20115;-76
2021/04/26 12:38:26;;;;;;;11.23;6.95;;;16.80;88.10;;;;;;4926160;29;20032;-76
2021/04/26 12:40:52;;;;;;;8.15;6.40;;;16.80;87.00;;;;;;4918673;29;20020;-75
2021/04/26 12:43:19;;;;;;;9.55;7.35;;;16.80;86.10;;;;;;4918862;29;20032;-76